createdAt,value
2023-06-18T00:00:24.297Z,24.71
2023-06-18T00:01:30.791Z,24.64
2023-06-18T00:02:34.392Z,24.59
2023-06-18T00:03:40.512Z,24.61
2023-06-18T00:04:44.098Z,24.55
2023-06-18T00:05:47.394Z,24.58
2023-06-18T00:06:50.062Z,24.56
2023-06-18T00:07:53.148Z,24.58
2023-06-18T00:08:55.436Z,24.60
2023-06-18T00:10:05.619Z,24.61
2023-06-18T00:11:10.987Z,24.52
2023-06-18T00:12:14.352Z,24.55
2023-06-18T00:13:18.153Z,24.51
2023-06-18T00:14:22.008Z,24.49
2023-06-18T00:15:25.604Z,24.47
2023-06-18T00:16:29.119Z,24.48
2023-06-18T00:17:39.173Z,24.46
2023-06-18T00:18:42.916Z,24.47
2023-06-18T00:19:46.432Z,24.36
2023-06-18T00:20:50.731Z,24.38
2023-06-18T00:21:54.084Z,24.32
2023-06-18T00:22:57.698Z,24.38
2023-06-18T00:24:01.201Z,24.37
2023-06-18T00:25:04.166Z,24.35
2023-06-18T00:26:09.422Z,24.34
2023-06-18T00:27:14.188Z,24.35
2023-06-18T00:28:18.542Z,24.37
2023-06-18T00:29:24.356Z,24.40
2023-06-18T00:30:27.849Z,24.35
2023-06-18T00:31:32.246Z,24.26
2023-06-18T00:32:39.067Z,24.28
2023-06-18T00:33:43.394Z,24.30
2023-06-18T00:34:49.175Z,24.27
2023-06-18T00:35:56.866Z,24.24
2023-06-18T00:37:02.973Z,24.27
2023-06-18T00:38:09.088Z,24.23
2023-06-18T00:39:12.591Z,24.26
2023-06-18T00:40:16.407Z,24.28
2023-06-18T00:41:20.123Z,24.22
2023-06-18T00:42:23.510Z,24.25
2023-06-18T00:43:29.952Z,24.31
2023-06-18T00:44:34.293Z,24.28
2023-06-18T00:45:38.482Z,24.25
2023-06-18T00:46:46.602Z,24.32
2023-06-18T00:47:50.375Z,24.22
2023-06-18T00:48:56.163Z,24.26
2023-06-18T00:50:02.307Z,24.25
2023-06-18T00:51:13.478Z,24.26
2023-06-18T00:52:16.926Z,24.25
2023-06-18T00:53:21.556Z,24.20
2023-06-18T00:54:27.672Z,24.17
2023-06-18T00:55:33.860Z,24.19
2023-06-18T00:56:40.094Z,24.18
2023-06-18T00:57:44.962Z,24.19
2023-06-18T00:58:49.514Z,24.14
2023-06-18T00:59:53.222Z,24.16
2023-06-18T01:00:59.591Z,24.17
2023-06-18T01:02:03.270Z,24.13
2023-06-18T01:03:09.346Z,24.09
2023-06-18T01:04:17.014Z,24.06
2023-06-18T01:05:23.188Z,24.13
2023-06-18T01:06:27.930Z,24.13
2023-06-18T01:07:35.020Z,24.00
2023-06-18T01:08:36.131Z,24.06
2023-06-18T01:09:40.259Z,24.04
2023-06-18T01:10:42.906Z,24.03
2023-06-18T01:11:48.286Z,24.06
2023-06-18T01:12:51.788Z,24.07
2023-06-18T01:13:55.510Z,24.05
2023-06-18T01:14:59.953Z,24.00
2023-06-18T01:16:08.468Z,24.00
2023-06-18T01:17:12.405Z,24.01
2023-06-18T01:18:16.327Z,23.96
2023-06-18T01:19:36.212Z,24.01
2023-06-18T01:20:45.062Z,24.00
2023-06-18T01:21:49.934Z,23.98
2023-06-18T01:23:06.907Z,24.00
2023-06-18T01:24:14.185Z,23.92
2023-06-18T01:25:19.964Z,23.90
2023-06-18T01:26:29.444Z,23.86
2023-06-18T01:27:38.662Z,23.90
2023-06-18T01:28:42.226Z,23.92
2023-06-18T01:29:48.449Z,23.90
2023-06-18T01:30:54.428Z,23.82
2023-06-18T01:31:57.359Z,23.70
2023-06-18T01:33:01.888Z,23.81
2023-06-18T01:34:06.117Z,23.78
2023-06-18T01:35:12.493Z,23.83
2023-06-18T01:36:16.318Z,23.72
2023-06-18T01:37:21.502Z,23.70
2023-06-18T01:38:39.143Z,23.64
2023-06-18T01:39:46.991Z,23.70
2023-06-18T01:40:52.432Z,23.66
2023-06-18T01:41:57.710Z,23.64
2023-06-18T01:43:01.795Z,23.61
2023-06-18T01:44:08.216Z,23.58
2023-06-18T01:45:14.853Z,23.61
2023-06-18T01:46:25.829Z,23.55
2023-06-18T01:47:29.931Z,23.63
2023-06-18T01:48:34.875Z,23.64
2023-06-18T01:49:40.037Z,23.68
2023-06-18T01:50:45.534Z,23.70
2023-06-18T01:51:52.171Z,23.63
2023-06-18T01:52:56.224Z,23.66
2023-06-18T01:54:00.416Z,23.69
2023-06-18T01:55:04.381Z,23.68
2023-06-18T01:56:12.283Z,23.72
2023-06-18T01:57:16.180Z,23.71
2023-06-18T01:58:21.491Z,23.67
2023-06-18T01:59:26.669Z,23.61
2023-06-18T02:00:29.516Z,23.61
2023-06-18T02:01:35.926Z,23.55
2023-06-18T02:02:40.727Z,23.52
2023-06-18T02:03:47.540Z,23.57
2023-06-18T02:04:52.247Z,23.60
2023-06-18T02:05:58.325Z,23.55
2023-06-18T02:07:01.973Z,23.58
2023-06-18T02:08:05.660Z,23.57
2023-06-18T02:09:12.773Z,23.62
2023-06-18T02:10:17.718Z,23.53
2023-06-18T02:11:20.433Z,23.60
2023-06-18T02:12:23.359Z,23.56
2023-06-18T02:13:26.709Z,23.58
2023-06-18T02:14:30.747Z,23.59
2023-06-18T02:15:33.989Z,23.57
2023-06-18T02:16:45.169Z,23.59
2023-06-18T02:17:49.750Z,23.61
2023-06-18T02:18:53.121Z,23.56
2023-06-18T02:19:55.802Z,23.56
2023-06-18T02:20:59.926Z,23.57
2023-06-18T02:22:04.998Z,23.59
2023-06-18T02:23:08.815Z,23.64
2023-06-18T02:24:15.671Z,23.66
2023-06-18T02:25:21.775Z,23.68
2023-06-18T02:26:25.605Z,23.66
2023-06-18T02:27:30.755Z,23.67
2023-06-18T02:28:34.380Z,23.63
2023-06-18T02:29:37.768Z,23.68
2023-06-18T02:30:41.226Z,23.71
2023-06-18T02:31:43.519Z,23.73
2023-06-18T02:32:47.902Z,23.70
2023-06-18T02:33:51.600Z,23.68
2023-06-18T02:34:53.837Z,23.66
2023-06-18T02:35:58.911Z,23.77
2023-06-18T02:37:02.303Z,23.76
2023-06-18T02:38:06.232Z,23.79
2023-06-18T02:39:10.261Z,23.82
2023-06-18T02:40:16.047Z,23.77
2023-06-18T02:41:20.322Z,23.77
2023-06-18T02:42:27.758Z,23.83
2023-06-18T02:43:33.964Z,23.82
2023-06-18T02:44:38.605Z,23.90
2023-06-18T02:45:42.469Z,23.83
2023-06-18T02:46:46.719Z,23.85
2023-06-18T02:47:51.071Z,23.80
2023-06-18T02:48:54.798Z,23.75
2023-06-18T02:49:58.049Z,23.77
2023-06-18T02:51:01.667Z,23.81
2023-06-18T02:52:09.668Z,23.82
2023-06-18T02:53:14.435Z,23.82
2023-06-18T02:54:18.031Z,23.71
2023-06-18T02:55:21.845Z,23.71
2023-06-18T02:56:26.082Z,23.71
2023-06-18T02:57:29.288Z,23.76
2023-06-18T02:58:35.228Z,23.76
2023-06-18T02:59:42.977Z,23.79
2023-06-18T03:00:50.270Z,23.77
2023-06-18T03:01:56.024Z,23.79
2023-06-18T03:02:58.396Z,23.81
2023-06-18T03:04:03.989Z,23.74
2023-06-18T03:05:10.066Z,23.70
2023-06-18T03:06:14.342Z,23.69
2023-06-18T03:07:18.769Z,23.77
2023-06-18T03:08:25.837Z,23.73
2023-06-18T03:09:30.436Z,23.80
2023-06-18T03:10:39.517Z,23.78
2023-06-18T03:11:42.754Z,23.74
2023-06-18T03:12:47.688Z,23.72
2023-06-18T03:13:58.993Z,23.74
2023-06-18T03:15:02.645Z,23.84
2023-06-18T03:16:05.398Z,23.93
2023-06-18T03:17:13.092Z,23.94
2023-06-18T03:18:15.348Z,23.94
2023-06-18T03:19:20.422Z,23.99
2023-06-18T03:20:25.575Z,24.05
2023-06-18T03:21:34.338Z,24.13
2023-06-18T03:22:38.672Z,24.14
2023-06-18T03:23:42.898Z,24.14
2023-06-18T03:24:46.141Z,24.17
2023-06-18T03:25:49.758Z,24.18
2023-06-18T03:27:01.938Z,24.22
2023-06-18T03:28:05.801Z,24.19
2023-06-18T03:29:11.068Z,24.19
2023-06-18T03:30:15.316Z,24.27
2023-06-18T03:31:20.093Z,24.38
2023-06-18T03:32:23.936Z,24.40
2023-06-18T03:33:30.219Z,24.51
2023-06-18T03:34:36.003Z,24.41
2023-06-18T03:35:40.470Z,24.56
2023-06-18T03:36:46.061Z,24.62
2023-06-18T03:37:49.989Z,24.64
2023-06-18T03:38:54.895Z,24.65
2023-06-18T03:39:58.704Z,24.82
2023-06-18T03:41:01.545Z,24.79
2023-06-18T03:42:06.112Z,24.82
2023-06-18T03:43:11.051Z,24.94
2023-06-18T03:44:15.080Z,24.87
2023-06-18T03:45:18.909Z,24.87
2023-06-18T03:46:23.682Z,24.94
2023-06-18T03:47:27.585Z,24.95
2023-06-18T03:48:32.547Z,24.95
2023-06-18T03:49:37.948Z,24.97
2023-06-18T03:50:42.326Z,24.96
2023-06-18T03:51:46.117Z,24.99
2023-06-18T03:52:49.810Z,24.94
2023-06-18T03:53:56.077Z,24.90
2023-06-18T03:55:00.385Z,24.98
2023-06-18T03:56:05.294Z,25.06
2023-06-18T03:57:10.304Z,25.07
2023-06-18T03:58:13.913Z,25.09
2023-06-18T03:59:17.526Z,25.19
2023-06-18T04:00:20.791Z,25.14
2023-06-18T04:01:24.975Z,25.17
2023-06-18T04:02:28.697Z,25.20
2023-06-18T04:03:32.276Z,25.23
2023-06-18T04:04:36.710Z,25.30
2023-06-18T04:05:39.205Z,25.20
2023-06-18T04:06:42.487Z,25.28
2023-06-18T04:07:45.991Z,25.23
2023-06-18T04:08:49.278Z,25.28
2023-06-18T04:09:55.410Z,25.39
2023-06-18T04:11:01.540Z,25.49
2023-06-18T04:12:05.743Z,25.57
2023-06-18T04:13:09.569Z,25.60
2023-06-18T04:14:14.215Z,25.60
2023-06-18T04:15:19.801Z,25.68
2023-06-18T04:16:26.155Z,25.71
2023-06-18T04:17:34.982Z,25.74
2023-06-18T04:18:38.765Z,25.77
2023-06-18T04:19:43.164Z,25.78
2023-06-18T04:20:46.874Z,25.85
2023-06-18T04:21:50.976Z,25.88
2023-06-18T04:22:54.571Z,25.88
2023-06-18T04:24:01.454Z,25.82
2023-06-18T04:25:06.524Z,25.87
2023-06-18T04:26:11.253Z,26.04
2023-06-18T04:27:14.752Z,26.12
2023-06-18T04:28:18.059Z,26.32
2023-06-18T04:29:21.561Z,26.35
2023-06-18T04:30:25.913Z,26.46
2023-06-18T04:31:29.611Z,26.76
2023-06-18T04:32:33.498Z,26.89
2023-06-18T04:33:39.236Z,26.96
2023-06-18T04:34:42.633Z,26.89
2023-06-18T04:35:46.662Z,26.84
2023-06-18T04:36:52.049Z,26.93
2023-06-18T04:37:56.186Z,26.98
2023-06-18T04:39:00.456Z,27.01
2023-06-18T04:40:04.835Z,27.10
2023-06-18T04:41:08.166Z,27.19
2023-06-18T04:42:14.267Z,27.14
2023-06-18T04:43:19.974Z,27.07
2023-06-18T04:44:24.728Z,27.20
2023-06-18T04:45:27.347Z,27.22
2023-06-18T04:46:31.055Z,27.25
2023-06-18T04:47:37.371Z,27.30
2023-06-18T04:48:41.672Z,27.42
2023-06-18T04:49:47.038Z,27.38
2023-06-18T04:50:50.772Z,27.49
2023-06-18T04:51:54.475Z,27.68
2023-06-18T04:52:58.094Z,28.11
2023-06-18T04:54:02.014Z,28.09
2023-06-18T04:55:07.060Z,27.95
2023-06-18T04:56:10.908Z,28.25
2023-06-18T04:57:16.605Z,28.47
2023-06-18T04:58:23.119Z,28.63
2023-06-18T04:59:27.820Z,28.67
2023-06-18T05:00:31.524Z,28.75
2023-06-18T05:01:34.385Z,28.88
2023-06-18T05:02:37.613Z,28.91
2023-06-18T05:03:41.726Z,28.94
2023-06-18T05:04:45.050Z,29.02
2023-06-18T05:05:50.287Z,28.85
2023-06-18T05:06:54.912Z,29.24
2023-06-18T05:08:00.155Z,29.44
2023-06-18T05:09:08.028Z,29.60
2023-06-18T05:10:14.090Z,29.63
2023-06-18T05:11:18.042Z,29.34
2023-06-18T05:12:21.450Z,29.42
2023-06-18T05:13:24.960Z,29.30
2023-06-18T05:14:28.564Z,29.47
2023-06-18T05:15:32.996Z,29.45
2023-06-18T05:16:36.447Z,29.41
2023-06-18T05:17:40.899Z,29.20
2023-06-18T05:18:49.403Z,29.10
2023-06-18T05:19:53.068Z,29.13
2023-06-18T05:20:58.807Z,29.58
2023-06-18T05:22:03.426Z,29.42
2023-06-18T05:23:08.631Z,29.37
2023-06-18T05:24:12.473Z,29.43
2023-06-18T05:25:16.362Z,29.37
2023-06-18T05:26:24.032Z,29.34
2023-06-18T05:27:31.213Z,29.16
2023-06-18T05:28:34.545Z,29.18
2023-06-18T05:29:38.230Z,29.45
2023-06-18T05:30:41.819Z,29.64
2023-06-18T05:31:46.058Z,29.90
2023-06-18T05:32:52.952Z,30.03
2023-06-18T05:33:56.754Z,29.90
2023-06-18T05:34:59.301Z,29.94
2023-06-18T05:36:03.430Z,29.97
2023-06-18T05:37:08.092Z,29.99
2023-06-18T05:38:14.653Z,30.07
2023-06-18T05:39:19.576Z,30.10
2023-06-18T05:40:23.445Z,30.24
2023-06-18T05:41:27.828Z,30.17
2023-06-18T05:42:31.182Z,30.21
2023-06-18T05:43:35.701Z,30.21
2023-06-18T05:44:39.476Z,30.07
2023-06-18T05:45:45.937Z,29.93
2023-06-18T05:46:52.630Z,30.15
2023-06-18T05:47:58.236Z,29.99
2023-06-18T05:49:19.146Z,30.11
2023-06-18T05:50:23.181Z,30.21
2023-06-18T05:51:28.711Z,30.13
2023-06-18T05:52:32.630Z,30.29
2023-06-18T05:53:36.337Z,30.31
2023-06-18T05:54:39.759Z,30.06
2023-06-18T05:55:45.995Z,30.04
2023-06-18T05:56:50.027Z,30.07
2023-06-18T05:57:54.475Z,29.88
2023-06-18T05:58:57.980Z,30.03
2023-06-18T06:00:05.676Z,30.05
2023-06-18T06:01:11.256Z,29.92
2023-06-18T06:02:15.475Z,30.14
2023-06-18T06:03:22.220Z,30.37
2023-06-18T06:04:26.130Z,30.43
2023-06-18T06:05:32.586Z,30.36
2023-06-18T06:06:36.496Z,30.50
2023-06-18T06:07:40.094Z,30.66
2023-06-18T06:08:43.814Z,30.67
2023-06-18T06:09:49.437Z,30.73
2023-06-18T06:10:53.640Z,30.88
2023-06-18T06:11:58.116Z,30.88
2023-06-18T06:13:01.788Z,30.71
2023-06-18T06:14:05.953Z,30.51
2023-06-18T06:15:11.543Z,30.53
2023-06-18T06:16:15.358Z,30.48
2023-06-18T06:17:20.415Z,30.66
2023-06-18T06:18:23.815Z,31.03
2023-06-18T06:19:27.849Z,31.31
2023-06-18T06:20:31.370Z,31.54
2023-06-18T06:21:35.926Z,31.95
2023-06-18T06:22:39.512Z,32.07
2023-06-18T06:23:41.933Z,32.12
2023-06-18T06:24:46.697Z,32.05
2023-06-18T06:25:50.971Z,32.08
2023-06-18T06:26:54.569Z,31.88
2023-06-18T06:28:00.573Z,31.90
2023-06-18T06:29:04.725Z,31.75
2023-06-18T06:30:12.176Z,31.59
2023-06-18T06:31:16.255Z,31.63
2023-06-18T06:32:19.842Z,31.51
2023-06-18T06:33:23.848Z,31.66
2023-06-18T06:34:27.785Z,31.62
2023-06-18T06:35:32.018Z,31.54
2023-06-18T06:36:38.859Z,31.16
2023-06-18T06:37:45.315Z,31.21
2023-06-18T06:38:49.107Z,31.15
2023-06-18T06:39:51.905Z,30.76
2023-06-18T06:40:55.808Z,30.84
2023-06-18T06:42:00.358Z,30.87
2023-06-18T06:43:05.629Z,31.15
2023-06-18T06:44:16.030Z,31.01
2023-06-18T06:45:27.263Z,31.12
2023-06-18T06:46:42.309Z,31.15
2023-06-18T06:47:54.007Z,31.18
2023-06-18T06:49:09.409Z,31.26
2023-06-18T06:50:17.714Z,31.40
2023-06-18T06:51:22.912Z,31.40
2023-06-18T06:52:27.162Z,31.04
2023-06-18T06:53:31.555Z,30.89
2023-06-18T06:54:38.263Z,31.04
2023-06-18T06:55:44.503Z,31.11
2023-06-18T06:56:49.737Z,31.23
2023-06-18T06:57:55.237Z,31.21
2023-06-18T06:58:59.053Z,31.16
2023-06-18T07:00:02.454Z,31.40
2023-06-18T07:01:07.078Z,31.58
2023-06-18T07:02:09.806Z,31.66
2023-06-18T07:03:16.696Z,31.50
2023-06-18T07:05:26.135Z,31.35
2023-06-18T07:06:29.638Z,31.44
2023-06-18T07:07:32.299Z,31.69
2023-06-18T07:08:40.107Z,31.71
2023-06-18T07:09:43.764Z,31.72
2023-06-18T07:10:47.362Z,32.11
2023-06-18T07:11:51.044Z,32.15
2023-06-18T07:12:53.807Z,32.16
2023-06-18T07:13:57.253Z,32.22
2023-06-18T07:15:01.763Z,32.03
2023-06-18T07:16:06.294Z,32.05
2023-06-18T07:17:09.638Z,31.99
2023-06-18T07:18:16.036Z,31.95
2023-06-18T07:19:19.820Z,31.89
2023-06-18T07:20:25.992Z,31.93
2023-06-18T07:21:29.469Z,32.30
2023-06-18T07:22:32.448Z,32.78
2023-06-18T07:23:37.832Z,32.54
2023-06-18T07:24:41.556Z,32.59
2023-06-18T07:25:47.133Z,32.76
2023-06-18T07:26:50.494Z,32.84
2023-06-18T07:27:53.937Z,33.08
2023-06-18T07:28:59.320Z,33.38
2023-06-18T07:30:02.715Z,33.51
2023-06-18T07:31:07.543Z,33.74
2023-06-18T07:32:10.876Z,33.44
2023-06-18T07:33:14.182Z,33.44
2023-06-18T07:34:21.687Z,33.58
2023-06-18T07:35:33.532Z,33.98
2023-06-18T07:36:38.824Z,33.64
2023-06-18T07:37:42.824Z,33.66
2023-06-18T07:38:46.624Z,33.52
2023-06-18T07:39:52.960Z,33.34
2023-06-18T07:40:59.471Z,33.29
2023-06-18T07:42:02.928Z,33.14
2023-06-18T07:43:05.897Z,33.06
2023-06-18T07:44:12.579Z,33.23
2023-06-18T07:45:15.817Z,33.51
2023-06-18T07:46:18.782Z,33.74
2023-06-18T07:47:22.732Z,33.78
2023-06-18T07:48:25.611Z,33.47
2023-06-18T07:49:29.267Z,33.58
2023-06-18T07:50:31.789Z,34.02
2023-06-18T07:51:35.289Z,34.26
2023-06-18T07:52:38.939Z,34.37
2023-06-18T07:53:44.801Z,34.62
2023-06-18T07:54:48.092Z,34.90
2023-06-18T07:55:54.670Z,35.03
2023-06-18T07:56:58.552Z,34.98
2023-06-18T07:58:02.369Z,34.76
2023-06-18T07:59:05.916Z,34.60
2023-06-18T08:00:09.998Z,34.37
2023-06-18T08:01:17.512Z,34.17
2023-06-18T08:02:22.258Z,34.01
2023-06-18T08:03:24.956Z,34.10
2023-06-18T08:04:28.377Z,34.34
2023-06-18T08:05:32.110Z,34.40
2023-06-18T08:06:35.713Z,34.78
2023-06-18T08:07:41.532Z,34.71
2023-06-18T08:08:43.765Z,34.46
2023-06-18T08:09:46.140Z,34.97
2023-06-18T08:10:52.912Z,35.48
2023-06-18T08:11:59.986Z,35.44
2023-06-18T08:13:04.841Z,35.68
2023-06-18T08:14:08.514Z,36.28
2023-06-18T08:15:12.249Z,36.56
2023-06-18T08:16:19.544Z,36.66
2023-06-18T08:17:23.965Z,36.61
2023-06-18T08:18:27.784Z,36.20
2023-06-18T08:19:32.361Z,35.65
2023-06-18T08:20:37.803Z,35.83
2023-06-18T08:21:41.832Z,35.98
2023-06-18T08:22:45.441Z,36.03
2023-06-18T08:23:48.989Z,36.82
2023-06-18T08:24:52.320Z,37.15
2023-06-18T08:25:55.222Z,37.29
2023-06-18T08:26:58.623Z,36.99
2023-06-18T08:28:01.793Z,37.05
2023-06-18T08:29:05.426Z,37.30
2023-06-18T08:30:08.656Z,36.85
2023-06-18T08:31:12.333Z,37.82
2023-06-18T08:32:15.834Z,38.39
2023-06-18T08:33:21.699Z,37.93
2023-06-18T08:34:26.820Z,37.76
2023-06-18T08:35:30.527Z,37.38
2023-06-18T08:36:33.919Z,37.74
2023-06-18T08:37:40.253Z,38.04
2023-06-18T08:38:46.268Z,37.29
2023-06-18T08:39:51.023Z,37.43
2023-06-18T08:40:57.758Z,37.14
2023-06-18T08:42:02.323Z,37.70
2023-06-18T08:43:07.694Z,37.58
2023-06-18T08:44:12.981Z,37.51
2023-06-18T08:45:16.694Z,37.83
2023-06-18T08:46:21.158Z,37.09
2023-06-18T08:47:26.720Z,36.83
2023-06-18T08:48:35.573Z,37.20
2023-06-18T08:49:43.218Z,37.49
2023-06-18T08:50:45.599Z,37.64
2023-06-18T08:51:50.831Z,37.41
2023-06-18T08:52:59.834Z,37.49
2023-06-18T08:54:06.865Z,37.77
2023-06-18T08:55:12.050Z,37.77
2023-06-18T08:56:16.495Z,38.20
2023-06-18T08:57:23.920Z,38.18
2023-06-18T08:58:27.795Z,37.56
2023-06-18T08:59:33.694Z,37.07
2023-06-18T09:00:38.141Z,37.01
2023-06-18T09:01:43.525Z,37.05
2023-06-18T09:02:47.068Z,36.91
2023-06-18T09:03:52.865Z,36.74
2023-06-18T09:04:57.682Z,36.76
2023-06-18T09:06:02.124Z,36.63
2023-06-18T09:07:11.327Z,36.70
2023-06-18T09:08:15.625Z,36.86
2023-06-18T09:09:19.308Z,37.13
2023-06-18T09:10:25.465Z,37.07
2023-06-18T09:11:31.246Z,36.26
2023-06-18T09:12:39.780Z,36.86
2023-06-18T09:13:45.584Z,36.70
2023-06-18T09:14:49.299Z,36.86
2023-06-18T09:15:52.382Z,37.22
2023-06-18T09:16:56.331Z,37.88
2023-06-18T09:18:00.131Z,38.01
2023-06-18T09:19:08.565Z,37.85
2023-06-18T09:20:17.521Z,37.78
2023-06-18T09:21:40.551Z,37.90
2023-06-18T09:22:47.566Z,38.39
2023-06-18T09:23:57.705Z,38.24
2023-06-18T09:25:01.807Z,37.37
2023-06-18T09:26:05.399Z,37.19
2023-06-18T09:27:09.130Z,37.50
2023-06-18T09:28:12.717Z,37.17
2023-06-18T09:29:19.688Z,36.93
2023-06-18T09:30:26.723Z,36.92
2023-06-18T09:31:29.125Z,36.31
2023-06-18T09:32:35.999Z,36.01
2023-06-18T09:33:38.809Z,35.91
2023-06-18T09:34:43.043Z,35.77
2023-06-18T09:35:46.087Z,35.31
2023-06-18T09:36:50.476Z,35.19
2023-06-18T09:37:56.844Z,35.00
2023-06-18T09:39:00.192Z,34.59
2023-06-18T09:40:05.471Z,34.53
2023-06-18T09:41:16.078Z,34.65
2023-06-18T09:42:22.636Z,34.56
2023-06-18T09:43:29.651Z,34.54
2023-06-18T09:44:35.316Z,34.60
2023-06-18T09:45:37.926Z,34.45
2023-06-18T09:46:45.717Z,34.33
2023-06-18T09:47:48.238Z,34.60
2023-06-18T09:48:51.307Z,34.61
2023-06-18T09:49:58.503Z,34.13
2023-06-18T09:51:04.942Z,34.07
2023-06-18T09:52:14.108Z,34.30
2023-06-18T09:53:20.642Z,34.28
2023-06-18T09:54:24.142Z,34.12
2023-06-18T09:55:29.129Z,33.98
2023-06-18T09:56:32.729Z,33.85
2023-06-18T09:57:37.907Z,33.80
2023-06-18T09:58:43.912Z,33.84
2023-06-18T09:59:46.582Z,33.72
2023-06-18T10:01:06.556Z,33.78
2023-06-18T10:02:11.976Z,33.64
2023-06-18T10:03:18.652Z,33.42
2023-06-18T10:04:26.478Z,33.22
2023-06-18T10:05:36.022Z,33.11
2023-06-18T10:06:41.057Z,32.94
2023-06-18T10:07:46.053Z,32.43
2023-06-18T10:08:54.230Z,32.80
2023-06-18T10:09:57.350Z,32.86
2023-06-18T10:10:59.534Z,32.85
2023-06-18T10:12:04.192Z,32.75
2023-06-18T10:13:10.950Z,32.52
2023-06-18T10:14:14.761Z,32.70
2023-06-18T10:15:21.359Z,32.80
2023-06-18T10:16:27.817Z,32.86
2023-06-18T10:17:33.059Z,32.91
2023-06-18T10:18:37.766Z,33.11
2023-06-18T10:19:44.470Z,33.21
2023-06-18T10:20:48.523Z,33.27
2023-06-18T10:21:53.026Z,33.28
2023-06-18T10:22:59.406Z,33.32
2023-06-18T10:24:07.010Z,33.38
2023-06-18T10:25:12.058Z,33.14
2023-06-18T10:26:16.840Z,33.15
2023-06-18T10:27:23.221Z,32.96
2023-06-18T10:28:27.800Z,33.34
2023-06-18T10:29:33.277Z,33.39
2023-06-18T10:30:37.524Z,33.81
2023-06-18T10:31:41.494Z,34.23
2023-06-18T10:32:45.459Z,34.35
2023-06-18T10:33:49.499Z,34.62
2023-06-18T10:34:56.884Z,35.08
2023-06-18T10:36:01.148Z,35.17
2023-06-18T10:37:05.726Z,35.38
2023-06-18T10:38:09.889Z,35.46
2023-06-18T10:39:24.328Z,35.56
2023-06-18T10:40:20.255Z,35.47
2023-06-18T10:41:26.988Z,35.28
2023-06-18T10:42:32.572Z,35.62
2023-06-18T10:43:37.965Z,36.11
2023-06-18T10:44:42.214Z,36.61
2023-06-18T10:46:03.999Z,36.81
2023-06-18T10:47:25.675Z,36.79
2023-06-18T10:48:30.105Z,36.94
2023-06-18T10:49:33.396Z,36.72
2023-06-18T10:50:36.278Z,36.55
2023-06-18T10:51:40.088Z,36.04
2023-06-18T10:52:48.850Z,36.06
2023-06-18T10:53:53.912Z,36.39
2023-06-18T10:54:57.718Z,36.41
2023-06-18T10:56:03.740Z,36.56
2023-06-18T10:57:08.594Z,36.57
2023-06-18T10:58:13.035Z,36.19
2023-06-18T10:59:16.641Z,35.79
2023-06-18T11:00:23.282Z,35.53
2023-06-18T11:01:28.657Z,35.77
2023-06-18T11:02:35.988Z,35.80
2023-06-18T11:03:43.679Z,35.68
2023-06-18T11:04:52.557Z,35.21
2023-06-18T11:05:56.687Z,35.08
2023-06-18T11:07:14.495Z,35.21
2023-06-18T11:08:18.741Z,34.89
2023-06-18T11:09:22.229Z,35.16
2023-06-18T11:10:36.711Z,35.41
2023-06-18T11:11:43.242Z,35.53
2023-06-18T11:12:46.652Z,35.18
2023-06-18T11:13:52.034Z,34.76
2023-06-18T11:15:16.441Z,34.77
2023-06-18T11:16:19.492Z,34.89
2023-06-18T11:17:23.301Z,35.00
2023-06-18T11:18:29.820Z,35.84
2023-06-18T11:19:33.524Z,36.04
2023-06-18T11:20:38.753Z,35.92
2023-06-18T11:21:43.074Z,35.64
2023-06-18T11:22:46.840Z,35.56
2023-06-18T11:23:51.322Z,35.61
2023-06-18T11:24:54.967Z,35.43
2023-06-18T11:26:01.308Z,35.43
2023-06-18T11:27:05.209Z,35.29
2023-06-18T11:28:09.658Z,35.19
2023-06-18T11:29:13.056Z,35.07
2023-06-18T11:30:17.296Z,35.33
2023-06-18T11:31:20.693Z,35.20
2023-06-18T11:32:33.498Z,34.99
2023-06-18T11:34:49.698Z,34.88
2023-06-18T11:35:53.685Z,34.88
2023-06-18T11:36:57.416Z,35.10
2023-06-18T11:37:59.612Z,35.14
2023-06-18T11:39:06.694Z,34.81
2023-06-18T11:40:12.267Z,34.93
2023-06-18T11:41:18.902Z,35.22
2023-06-18T11:42:23.429Z,35.25
2023-06-18T11:43:27.140Z,35.33
2023-06-18T11:44:31.805Z,35.22
2023-06-18T11:45:35.181Z,35.39
2023-06-18T11:46:39.785Z,35.19
2023-06-18T11:47:49.556Z,35.37
2023-06-18T11:48:54.502Z,35.38
2023-06-18T11:50:01.222Z,35.31
2023-06-18T11:51:05.771Z,34.84
2023-06-18T11:52:09.691Z,34.87
2023-06-18T11:53:13.827Z,34.86
2023-06-18T11:54:17.141Z,34.68
2023-06-18T11:55:21.753Z,34.85
2023-06-18T11:56:26.873Z,34.96
2023-06-18T11:57:31.933Z,35.07
2023-06-18T11:58:36.366Z,34.85
2023-06-18T11:59:44.880Z,34.94
2023-06-18T12:00:55.888Z,35.01
2023-06-18T12:02:02.231Z,35.11
2023-06-18T12:03:07.138Z,34.70
2023-06-18T12:04:10.840Z,34.90
2023-06-18T12:05:14.512Z,34.66
2023-06-18T12:06:21.368Z,34.76
2023-06-18T12:07:25.397Z,34.77
2023-06-18T12:08:28.908Z,34.88
2023-06-18T12:09:37.837Z,34.90
2023-06-18T12:10:42.815Z,34.77
2023-06-18T12:11:47.462Z,34.43
2023-06-18T12:12:55.663Z,34.52
2023-06-18T12:14:05.827Z,34.63
2023-06-18T12:15:25.001Z,34.82
2023-06-18T12:16:31.832Z,34.78
2023-06-18T12:17:37.008Z,34.82
2023-06-18T12:18:42.867Z,34.73
2023-06-18T12:19:47.817Z,34.74
2023-06-18T12:20:51.637Z,34.82
2023-06-18T12:21:55.239Z,34.91
2023-06-18T12:23:00.389Z,34.94
2023-06-18T12:24:04.250Z,34.79
2023-06-18T12:25:08.107Z,34.95
2023-06-18T12:26:13.877Z,34.83
2023-06-18T12:27:17.475Z,34.70
2023-06-18T12:28:25.189Z,34.68
2023-06-18T12:29:30.646Z,34.90
2023-06-18T12:30:36.121Z,34.55
2023-06-18T12:31:39.423Z,34.33
2023-06-18T12:32:46.736Z,34.54
2023-06-18T12:33:50.005Z,34.53
2023-06-18T12:34:52.550Z,34.35
2023-06-18T12:35:57.641Z,34.10
2023-06-18T12:37:01.240Z,34.12
2023-06-18T12:38:06.336Z,34.43
2023-06-18T12:39:15.439Z,34.56
2023-06-18T12:40:22.846Z,34.45
2023-06-18T12:41:31.682Z,34.46
2023-06-18T12:42:35.110Z,34.77
2023-06-18T12:43:43.048Z,34.73
2023-06-18T12:44:46.563Z,34.81
2023-06-18T12:45:57.778Z,34.96
2023-06-18T12:47:01.597Z,35.05
2023-06-18T12:48:12.425Z,35.14
2023-06-18T12:49:16.558Z,35.14
2023-06-18T12:50:26.746Z,34.66
2023-06-18T12:51:53.768Z,34.05
2023-06-18T12:53:00.520Z,33.88
2023-06-18T12:54:04.210Z,34.34
2023-06-18T12:55:19.285Z,34.57
2023-06-18T12:56:25.081Z,34.30
2023-06-18T12:57:29.999Z,34.21
2023-06-18T12:58:35.461Z,34.07
2023-06-18T12:59:38.801Z,33.93
2023-06-18T13:00:42.681Z,34.33
2023-06-18T13:01:47.779Z,34.45
2023-06-18T13:02:53.311Z,34.46
2023-06-18T13:03:57.631Z,34.27
2023-06-18T13:05:03.764Z,34.22
2023-06-18T13:06:08.185Z,34.04
2023-06-18T13:07:12.274Z,34.16
2023-06-18T13:08:19.369Z,34.13
2023-06-18T13:09:24.493Z,33.91
2023-06-18T13:10:29.264Z,33.78
2023-06-18T13:11:36.461Z,33.68
2023-06-18T13:12:40.322Z,33.47
2023-06-18T13:13:44.371Z,33.45
2023-06-18T13:14:49.823Z,33.43
2023-06-18T13:15:55.562Z,33.56
2023-06-18T13:17:00.904Z,33.46
2023-06-18T13:18:04.469Z,33.37
2023-06-18T13:19:08.482Z,33.30
2023-06-18T13:20:11.448Z,33.40
2023-06-18T13:21:19.145Z,33.36
2023-06-18T13:22:23.133Z,33.45
2023-06-18T13:23:25.828Z,33.15
2023-06-18T13:24:30.194Z,32.90
2023-06-18T13:25:34.839Z,32.73
2023-06-18T13:26:42.196Z,32.58
2023-06-18T13:27:46.139Z,32.56
2023-06-18T13:28:49.856Z,32.52
2023-06-18T13:29:54.901Z,32.62
2023-06-18T13:30:57.874Z,32.50
2023-06-18T13:32:03.199Z,32.65
2023-06-18T13:33:08.654Z,32.64
2023-06-18T13:34:11.270Z,32.64
2023-06-18T13:35:13.678Z,32.84
2023-06-18T13:36:17.917Z,32.82
2023-06-18T13:37:23.372Z,32.91
2023-06-18T13:38:29.952Z,32.95
2023-06-18T13:39:32.686Z,33.17
2023-06-18T13:40:35.963Z,33.35
2023-06-18T13:41:39.941Z,33.54
2023-06-18T13:42:43.646Z,33.73
2023-06-18T13:43:47.203Z,33.77
2023-06-18T13:44:50.202Z,33.64
2023-06-18T13:45:55.924Z,33.61
2023-06-18T13:47:00.340Z,33.60
2023-06-18T13:48:07.341Z,33.31
2023-06-18T13:49:13.696Z,33.09
2023-06-18T13:50:17.616Z,32.92
2023-06-18T13:51:20.670Z,32.66
2023-06-18T13:52:24.967Z,32.46
2023-06-18T13:53:28.409Z,32.71
2023-06-18T13:54:32.032Z,32.83
2023-06-18T13:55:35.161Z,32.96
2023-06-18T13:56:38.756Z,32.77
2023-06-18T13:57:42.135Z,32.85
2023-06-18T13:58:47.511Z,32.69
2023-06-18T13:59:50.917Z,32.71
2023-06-18T14:00:55.366Z,32.62
2023-06-18T14:02:01.593Z,32.61